Terminal Aerodrome Forecast
Issued by NWS

Home | Current Version | Previous Version | Text Only | Print | Product List | Glossary On
Versions: 1 2 3 4 5 6 7 8 9 10 11 12 13 14
672
FTUS46 KMTR 240524
TAFOAK
TAF
KOAK 240524Z 2406/2512 19008KT P6SM FEW040 SCT080 BKN100
     FM240700 17011KT P6SM FEW040 BKN050 OVC100
     FM241000 14010KT P6SM VCSH FEW040 OVC100
     FM241200 14012KT P6SM -SHRA SCT030 OVC050
     FM241700 15018G25KT P6SM -RA BKN025 OVC040
      TEMPO 2419/2423 4SM RA
     FM250100 27008KT P6SM -SHRA SCT030 BKN050
     FM250500 24006KT P6SM SCT050 BKN070=

USA.gov is the U.S. government's official web portal to all federal, state and local government web resources and services.